createdAt,value
2022-10-22T00:00:09.107Z,1.70
2022-10-22T00:02:36.268Z,1.25
2022-10-22T00:05:04.946Z,1.65
2022-10-22T00:07:32.036Z,2.15
2022-10-22T00:09:59.100Z,1.65
2022-10-22T00:12:26.420Z,1.77
2022-10-22T00:14:53.562Z,0.93
2022-10-22T00:17:20.755Z,0.90
2022-10-22T00:19:47.833Z,1.10
2022-10-22T00:22:14.939Z,1.00
2022-10-22T00:24:42.336Z,0.80
2022-10-22T00:27:13.211Z,1.00
2022-10-22T00:29:40.516Z,0.90
2022-10-22T00:32:07.971Z,0.93
2022-10-22T00:34:35.053Z,1.20
2022-10-22T00:37:02.136Z,0.90
2022-10-22T00:39:29.684Z,1.10
2022-10-22T00:41:58.709Z,1.00
2022-10-22T00:45:02.987Z,0.80
2022-10-22T00:47:37.589Z,0.80
2022-10-22T00:50:09.898Z,0.60
2022-10-22T00:52:37.476Z,0.80
2022-10-22T00:55:05.849Z,2.83
2022-10-22T00:57:35.150Z,2.72
2022-10-22T01:00:02.932Z,1.27
2022-10-22T01:02:30.060Z,1.30
2022-10-22T01:04:57.168Z,1.40
2022-10-22T01:07:26.251Z,1.20
2022-10-22T01:10:18.083Z,1.08
2022-10-22T01:13:03.310Z,0.90
2022-10-22T01:15:37.318Z,0.93
2022-10-22T01:18:12.627Z,0.85
2022-10-22T01:20:55.949Z,0.80
2022-10-22T01:23:36.914Z,0.90
2022-10-22T01:29:07.550Z,1.00
2022-10-22T01:31:40.211Z,0.70
2022-10-22T01:34:10.187Z,0.70
2022-10-22T01:36:38.576Z,0.50
2022-10-22T01:39:07.903Z,0.60
2022-10-22T01:41:38.547Z,0.70
2022-10-22T01:44:05.597Z,0.50
2022-10-22T01:46:33.483Z,0.60
2022-10-22T01:49:34.892Z,0.50
2022-10-22T01:52:37.291Z,0.40
2022-10-22T01:55:26.698Z,0.40
2022-10-22T01:58:15.503Z,0.50
2022-10-22T02:00:50.940Z,0.38
2022-10-22T02:03:25.818Z,0.52
2022-10-22T02:05:57.489Z,0.40
2022-10-22T02:08:28.994Z,0.38
2022-10-22T02:10:57.883Z,0.40
2022-10-22T02:13:35.754Z,0.40
2022-10-22T02:16:04.906Z,0.50
2022-10-22T02:18:37.502Z,0.43
2022-10-22T02:23:36.306Z,0.40
2022-10-22T02:26:22.494Z,0.40
2022-10-22T02:28:49.568Z,0.40
2022-10-22T02:31:23.787Z,0.40
2022-10-22T02:33:57.032Z,0.32
2022-10-22T02:36:24.602Z,0.40
2022-10-22T02:38:52.657Z,0.40
2022-10-22T02:41:20.620Z,0.40
2022-10-22T02:43:54.690Z,0.47
2022-10-22T02:46:22.497Z,0.40
2022-10-22T02:48:49.575Z,0.40
2022-10-22T02:51:16.768Z,0.40
2022-10-22T02:53:43.867Z,0.45
2022-10-22T02:56:11.994Z,0.30
2022-10-22T02:58:39.102Z,0.45
2022-10-22T03:01:06.382Z,0.50
2022-10-22T03:03:33.757Z,0.40
2022-10-22T03:06:00.939Z,0.50
2022-10-22T03:08:27.999Z,0.50
2022-10-22T03:10:55.078Z,0.50
2022-10-22T03:13:22.186Z,0.40
2022-10-22T03:15:50.587Z,0.47
2022-10-22T03:18:17.916Z,0.40
2022-10-22T03:20:45.114Z,0.40
2022-10-22T03:23:14.945Z,0.38
2022-10-22T03:25:43.783Z,0.32
2022-10-22T03:28:14.273Z,0.40
2022-10-22T03:30:41.491Z,0.55
2022-10-22T03:33:08.554Z,0.50
2022-10-22T03:35:43.515Z,0.70
2022-10-22T03:38:11.045Z,0.50
2022-10-22T03:40:38.644Z,0.60
2022-10-22T03:43:05.879Z,0.50
2022-10-22T03:45:33.117Z,0.55
2022-10-22T03:48:00.368Z,0.50
2022-10-22T03:50:27.411Z,0.50
2022-10-22T03:52:54.707Z,0.60
2022-10-22T03:55:22.145Z,0.77
2022-10-22T03:57:49.250Z,0.75
2022-10-22T04:00:16.458Z,0.75
2022-10-22T04:02:43.548Z,0.68
2022-10-22T04:05:10.742Z,1.05
2022-10-22T04:07:38.089Z,0.85
2022-10-22T04:10:05.793Z,0.90
2022-10-22T04:12:32.893Z,1.00
2022-10-22T04:14:59.984Z,0.90
2022-10-22T04:17:27.021Z,1.40
2022-10-22T04:19:54.050Z,1.20
2022-10-22T04:22:21.186Z,1.10
2022-10-22T04:24:48.402Z,1.27
2022-10-22T04:27:15.459Z,1.10
2022-10-22T04:29:43.145Z,1.13
2022-10-22T04:32:10.239Z,0.85
2022-10-22T04:34:37.271Z,1.10
2022-10-22T04:37:05.280Z,1.00
2022-10-22T04:39:32.455Z,0.80
2022-10-22T04:41:59.539Z,1.00
2022-10-22T04:44:26.655Z,0.80
2022-10-22T04:46:53.775Z,0.70
2022-10-22T04:49:20.811Z,0.77
2022-10-22T04:51:47.826Z,0.50
2022-10-22T04:54:15.151Z,0.52
2022-10-22T04:56:42.461Z,0.50
2022-10-22T04:59:13.015Z,0.55
2022-10-22T05:01:43.553Z,0.52
2022-10-22T05:04:17.071Z,0.40
2022-10-22T05:06:44.734Z,0.60
2022-10-22T05:09:18.512Z,0.50
2022-10-22T05:14:15.484Z,0.60
2022-10-22T05:16:42.658Z,0.65
2022-10-22T05:19:15.281Z,0.50
2022-10-22T05:21:42.383Z,0.70
2022-10-22T05:24:09.683Z,0.85
2022-10-22T05:26:36.829Z,0.60
2022-10-22T05:29:03.944Z,0.70
2022-10-22T05:31:31.079Z,0.70
2022-10-22T05:33:58.321Z,0.50
2022-10-22T05:36:25.496Z,0.82
2022-10-22T05:38:52.762Z,0.80
2022-10-22T05:41:25.411Z,0.60
2022-10-22T05:43:56.193Z,0.90
2022-10-22T05:46:24.761Z,0.70
2022-10-22T05:49:03.509Z,0.63
2022-10-22T05:51:33.903Z,0.60
2022-10-22T05:54:06.383Z,0.73
2022-10-22T05:56:34.048Z,0.70
2022-10-22T06:01:37.859Z,0.60
2022-10-22T06:04:08.022Z,0.77
2022-10-22T06:06:53.901Z,0.70
2022-10-22T06:09:34.862Z,0.75
2022-10-22T06:12:02.617Z,0.60
2022-10-22T06:14:32.531Z,0.80
2022-10-22T06:17:00.253Z,0.70
2022-10-22T06:19:27.559Z,0.70
2022-10-22T06:21:54.641Z,0.68
2022-10-22T06:24:21.729Z,0.70
2022-10-22T06:26:53.009Z,0.70
2022-10-22T06:29:20.178Z,0.88
2022-10-22T06:31:47.252Z,0.70
2022-10-22T06:34:15.913Z,0.93
2022-10-22T06:36:44.813Z,0.70
2022-10-22T06:39:14.027Z,0.80
2022-10-22T06:41:41.675Z,0.70
2022-10-22T06:44:14.314Z,0.85
2022-10-22T06:46:43.407Z,0.80
2022-10-22T06:49:14.610Z,0.80
2022-10-22T06:51:42.047Z,0.70
2022-10-22T06:54:09.499Z,0.85
2022-10-22T06:56:36.731Z,0.80
2022-10-22T06:59:04.282Z,0.70
2022-10-22T07:01:34.208Z,0.70
2022-10-22T07:04:02.177Z,0.90
2022-10-22T07:06:30.124Z,0.95
2022-10-22T07:08:59.106Z,0.98
2022-10-22T07:11:29.103Z,0.80
2022-10-22T07:13:58.744Z,0.60
2022-10-22T07:16:29.650Z,0.60
2022-10-22T07:18:59.815Z,0.80
2022-10-22T07:21:26.960Z,0.60
2022-10-22T07:23:54.012Z,0.70
2022-10-22T07:26:21.377Z,0.70
2022-10-22T07:28:48.821Z,0.80
2022-10-22T07:31:17.152Z,0.90
2022-10-22T07:33:45.204Z,0.80
2022-10-22T07:36:18.113Z,0.70
2022-10-22T07:38:49.993Z,0.70
2022-10-22T07:41:17.695Z,0.63
2022-10-22T07:43:44.817Z,0.70
2022-10-22T07:46:12.378Z,1.60
2022-10-22T07:48:39.694Z,0.90
2022-10-22T07:51:07.139Z,0.80
2022-10-22T07:53:34.433Z,0.80
2022-10-22T07:56:01.673Z,0.70
2022-10-22T07:58:28.954Z,0.80
2022-10-22T08:00:57.672Z,0.80
2022-10-22T08:03:25.004Z,0.80
2022-10-22T08:05:52.551Z,0.80
2022-10-22T08:08:20.156Z,0.95
2022-10-22T08:10:49.302Z,0.95
2022-10-22T08:13:16.643Z,0.70
2022-10-22T08:18:12.172Z,0.90
2022-10-22T08:20:39.683Z,1.10
2022-10-22T08:23:06.779Z,1.40
2022-10-22T08:25:34.236Z,1.40
2022-10-22T08:28:01.516Z,1.00
2022-10-22T08:30:30.078Z,0.98
2022-10-22T08:32:57.333Z,0.95
2022-10-22T08:35:24.451Z,1.20
2022-10-22T08:37:51.505Z,0.90
2022-10-22T08:40:32.468Z,1.08
2022-10-22T08:43:21.203Z,1.17
2022-10-22T08:45:56.392Z,0.90
2022-10-22T08:48:35.623Z,1.00
2022-10-22T08:51:02.773Z,0.90
2022-10-22T08:53:42.955Z,1.08
2022-10-22T08:56:10.218Z,1.40
2022-10-22T08:58:54.153Z,1.10
2022-10-22T09:01:46.083Z,1.55
2022-10-22T09:04:34.014Z,1.20
2022-10-22T09:07:01.232Z,0.77
2022-10-22T09:09:35.402Z,1.35
2022-10-22T09:12:07.452Z,1.20
2022-10-22T09:14:34.693Z,1.20
2022-10-22T09:17:26.597Z,1.25
2022-10-22T09:19:54.617Z,1.10
2022-10-22T09:22:42.765Z,1.05
2022-10-22T09:25:28.440Z,0.90
2022-10-22T09:27:58.939Z,1.10
2022-10-22T09:30:29.767Z,0.98
2022-10-22T09:33:03.205Z,1.10
2022-10-22T09:35:35.267Z,1.05
2022-10-22T09:38:08.259Z,1.38
2022-10-22T09:40:52.572Z,0.95
2022-10-22T09:43:19.882Z,1.10
2022-10-22T09:45:48.421Z,1.02
2022-10-22T09:48:15.419Z,0.90
2022-10-22T09:50:55.639Z,0.93
2022-10-22T09:53:26.992Z,0.90
2022-10-22T09:56:09.487Z,1.02
2022-10-22T09:58:49.691Z,1.08
2022-10-22T10:01:29.450Z,1.00
2022-10-22T10:04:09.859Z,0.90
2022-10-22T10:06:40.740Z,0.90
2022-10-22T10:09:17.196Z,0.65
2022-10-22T10:11:54.413Z,0.60
2022-10-22T10:14:48.901Z,0.77
2022-10-22T10:17:34.799Z,0.60
2022-10-22T10:20:26.286Z,0.70
2022-10-22T10:23:08.623Z,1.40
2022-10-22T10:25:43.323Z,1.30
2022-10-22T10:28:36.137Z,1.20
2022-10-22T10:31:28.825Z,1.00
2022-10-22T10:34:21.047Z,0.90
2022-10-22T10:37:42.308Z,1.00
2022-10-22T10:40:42.047Z,1.00
2022-10-22T10:43:26.467Z,1.00
2022-10-22T10:45:56.598Z,1.10
2022-10-22T10:48:48.356Z,1.08
2022-10-22T10:51:49.464Z,1.25
2022-10-22T10:54:28.686Z,0.93
2022-10-22T10:57:03.409Z,7.15
2022-10-22T11:00:00.876Z,5.45
2022-10-22T11:02:58.776Z,3.20
2022-10-22T11:05:31.208Z,2.35
2022-10-22T11:08:21.288Z,2.00
2022-10-22T11:11:14.746Z,2.10
2022-10-22T11:13:45.578Z,1.40
2022-10-22T11:16:25.178Z,1.40
2022-10-22T11:19:52.466Z,1.23
2022-10-22T11:22:30.999Z,3.15
2022-10-22T11:24:58.202Z,2.40
2022-10-22T11:27:37.976Z,2.17
2022-10-22T11:30:12.617Z,2.22
2022-10-22T11:32:43.160Z,1.98
2022-10-22T11:35:19.365Z,1.30
2022-10-22T11:37:50.410Z,1.10
2022-10-22T11:40:31.316Z,1.48
2022-10-22T11:43:09.708Z,1.20
2022-10-22T11:45:40.050Z,1.23
2022-10-22T11:48:10.232Z,1.08
2022-10-22T11:51:01.309Z,1.15
2022-10-22T11:53:41.628Z,0.85
2022-10-22T11:56:10.345Z,0.95
2022-10-22T11:58:50.852Z,1.02
2022-10-22T12:01:42.321Z,1.02
2022-10-22T12:04:18.537Z,1.17
2022-10-22T12:06:59.186Z,1.00
2022-10-22T12:09:30.558Z,1.20
2022-10-22T12:12:04.871Z,1.20
2022-10-22T12:14:38.273Z,0.93
2022-10-22T12:17:14.364Z,0.93
2022-10-22T12:19:42.796Z,1.00
2022-10-22T12:22:16.322Z,1.20
2022-10-22T12:24:47.093Z,4.45
2022-10-22T12:27:41.761Z,2.00
2022-10-22T12:30:20.229Z,1.67
2022-10-22T12:32:47.507Z,1.42
2022-10-22T12:35:20.526Z,1.52
2022-10-22T12:37:57.457Z,1.17
2022-10-22T12:40:30.012Z,1.50
2022-10-22T12:43:05.975Z,1.98
2022-10-22T12:45:34.709Z,1.92
2022-10-22T12:48:05.894Z,4.00
2022-10-22T12:50:39.448Z,5.13
2022-10-22T12:53:40.315Z,3.72
2022-10-22T12:56:12.530Z,1.95
2022-10-22T12:58:48.439Z,1.85
2022-10-22T13:01:17.837Z,3.30
2022-10-22T13:03:50.254Z,2.55
2022-10-22T13:06:20.427Z,1.60
2022-10-22T13:09:02.439Z,1.33
2022-10-22T13:11:40.480Z,1.60
2022-10-22T13:14:21.940Z,1.98
2022-10-22T13:17:10.793Z,2.10
2022-10-22T13:19:44.976Z,1.98
2022-10-22T13:22:33.071Z,2.65
2022-10-22T13:25:26.684Z,2.20
2022-10-22T13:28:01.406Z,1.77
2022-10-22T13:30:33.267Z,1.50
2022-10-22T13:33:02.033Z,1.50
2022-10-22T13:35:33.305Z,1.40
2022-10-22T13:38:02.074Z,1.38
2022-10-22T13:40:29.349Z,1.30
2022-10-22T13:42:56.467Z,1.88
2022-10-22T13:45:23.911Z,1.40
2022-10-22T13:47:55.183Z,2.15
2022-10-22T13:50:22.628Z,1.30
2022-10-22T13:52:59.010Z,1.40
2022-10-22T13:55:29.530Z,1.30
2022-10-22T13:58:24.287Z,2.00
2022-10-22T14:00:57.325Z,1.75
2022-10-22T14:03:28.802Z,1.42
2022-10-22T14:05:55.951Z,1.70
2022-10-22T14:08:24.052Z,1.52
2022-10-22T14:10:51.117Z,1.50
2022-10-22T14:13:19.677Z,1.40
2022-10-22T14:15:50.682Z,1.60
2022-10-22T14:18:25.837Z,1.80
2022-10-22T14:20:56.257Z,1.58
2022-10-22T14:23:26.556Z,1.52
2022-10-22T14:25:53.661Z,1.55
2022-10-22T14:28:20.887Z,1.63
2022-10-22T14:30:48.337Z,2.00
2022-10-22T14:33:22.569Z,1.45
2022-10-22T14:35:51.580Z,1.48
2022-10-22T14:38:18.731Z,1.40
2022-10-22T14:40:46.187Z,1.00
2022-10-22T14:43:18.718Z,1.20
2022-10-22T14:45:45.901Z,1.65
2022-10-22T14:48:13.086Z,1.33
2022-10-22T14:50:40.258Z,1.13
2022-10-22T14:53:07.767Z,1.00
2022-10-22T14:55:34.872Z,1.00
2022-10-22T14:58:01.978Z,0.90
2022-10-22T15:00:29.108Z,1.10
2022-10-22T15:02:56.187Z,1.60
2022-10-22T15:05:23.522Z,1.20
2022-10-22T15:07:50.661Z,1.20
2022-10-22T15:10:17.839Z,1.08
2022-10-22T15:12:45.016Z,1.10
2022-10-22T15:15:12.268Z,1.60
2022-10-22T15:17:39.717Z,1.65
2022-10-22T15:20:07.608Z,1.80
2022-10-22T15:22:35.637Z,1.38
2022-10-22T15:25:08.419Z,1.35
2022-10-22T15:27:35.903Z,1.02
2022-10-22T15:32:35.098Z,1.60
2022-10-22T15:35:02.547Z,1.50
2022-10-22T15:37:29.736Z,1.00
2022-10-22T15:39:56.853Z,1.30
2022-10-22T15:42:24.379Z,1.13
2022-10-22T15:44:58.268Z,1.25
2022-10-22T15:47:28.891Z,1.20
2022-10-22T15:49:56.080Z,0.98
2022-10-22T15:52:23.561Z,1.00
2022-10-22T15:54:50.724Z,1.10
2022-10-22T15:57:17.846Z,1.77
2022-10-22T15:59:45.080Z,1.70
2022-10-22T16:02:12.386Z,2.08
2022-10-22T16:04:39.885Z,2.10
2022-10-22T16:07:07.233Z,2.35
2022-10-22T16:09:34.381Z,1.80
2022-10-22T16:12:01.549Z,1.50
2022-10-22T16:14:29.341Z,1.55
2022-10-22T16:16:57.040Z,2.50
2022-10-22T16:19:24.980Z,2.00
2022-10-22T16:21:54.984Z,1.80
2022-10-22T16:24:23.379Z,2.10
2022-10-22T16:26:50.827Z,1.48
2022-10-22T16:29:18.044Z,1.50
2022-10-22T16:31:45.786Z,1.67
2022-10-22T16:34:13.814Z,1.83
2022-10-22T16:36:41.004Z,1.92
2022-10-22T16:39:08.313Z,1.42
2022-10-22T16:41:35.657Z,1.58
2022-10-22T16:44:06.509Z,1.45
2022-10-22T16:46:37.022Z,1.40
2022-10-22T16:49:04.445Z,1.20
2022-10-22T16:51:31.597Z,1.02
2022-10-22T16:53:59.036Z,1.20
2022-10-22T16:56:26.586Z,1.13
2022-10-22T16:58:56.371Z,1.40
2022-10-22T17:01:30.040Z,1.25
2022-10-22T17:04:00.295Z,1.30
2022-10-22T17:06:27.430Z,0.90
2022-10-22T17:08:54.612Z,1.00
2022-10-22T17:11:24.059Z,0.77
2022-10-22T17:13:53.777Z,1.02
2022-10-22T17:16:23.247Z,1.10
2022-10-22T17:18:50.965Z,1.20
2022-10-22T17:21:18.995Z,1.00
2022-10-22T17:23:47.210Z,1.10
2022-10-22T17:26:17.637Z,0.80
2022-10-22T17:28:44.917Z,0.80
2022-10-22T17:31:26.578Z,1.00
2022-10-22T17:33:55.716Z,1.13
2022-10-22T17:36:24.770Z,1.83
2022-10-22T17:38:54.818Z,2.00
2022-10-22T17:41:24.675Z,2.10
2022-10-22T17:43:52.057Z,1.40
2022-10-22T17:46:22.185Z,1.30
2022-10-22T17:48:54.077Z,1.90
2022-10-22T17:51:22.105Z,1.42
2022-10-22T17:53:52.847Z,1.80
2022-10-22T17:56:25.309Z,1.20
2022-10-22T17:58:53.254Z,1.73
2022-10-22T18:01:25.384Z,1.00
2022-10-22T18:03:54.224Z,0.98
2022-10-22T18:06:24.492Z,0.90
2022-10-22T18:11:27.265Z,1.10
2022-10-22T18:13:56.961Z,0.80
2022-10-22T18:16:24.532Z,1.55
2022-10-22T18:18:54.405Z,1.50
2022-10-22T18:21:23.446Z,1.98
2022-10-22T18:23:50.700Z,1.48
2022-10-22T18:26:21.399Z,1.85
2022-10-22T18:31:21.439Z,2.10
2022-10-22T18:33:48.940Z,2.00
2022-10-22T18:36:19.611Z,1.67
2022-10-22T18:38:51.207Z,1.40
2022-10-22T18:41:20.031Z,2.10
2022-10-22T18:44:02.117Z,1.90
2022-10-22T18:46:31.139Z,1.40
2022-10-22T18:48:59.375Z,1.50
2022-10-22T18:51:30.506Z,1.52
2022-10-22T18:54:05.670Z,1.52
2022-10-22T18:56:45.209Z,1.55
2022-10-22T18:59:23.609Z,1.70
2022-10-22T19:01:53.129Z,1.75
2022-10-22T19:04:20.236Z,1.20
2022-10-22T19:06:47.709Z,1.33
2022-10-22T19:09:15.860Z,1.65
2022-10-22T19:11:44.778Z,1.55
2022-10-22T19:14:14.069Z,1.20
2022-10-22T19:16:41.173Z,1.30
2022-10-22T19:19:08.810Z,1.33
2022-10-22T19:21:36.932Z,1.30
2022-10-22T19:24:04.304Z,1.20
2022-10-22T19:26:31.773Z,2.15
2022-10-22T19:29:00.323Z,3.28
2022-10-22T19:31:32.865Z,3.30
2022-10-22T19:34:01.856Z,3.45
2022-10-22T19:36:30.434Z,3.40
2022-10-22T19:38:58.010Z,3.63
2022-10-22T19:41:27.055Z,2.95
2022-10-22T19:43:55.578Z,2.63
2022-10-22T19:46:23.650Z,2.63
2022-10-22T19:48:52.571Z,2.50
2022-10-22T19:51:22.289Z,2.20
2022-10-22T19:53:50.253Z,2.47
2022-10-22T19:56:21.051Z,2.33
2022-10-22T19:58:48.109Z,2.10
2022-10-22T20:01:17.096Z,1.67
2022-10-22T20:03:44.830Z,1.83
2022-10-22T20:06:14.145Z,2.05
2022-10-22T20:08:41.482Z,2.40
2022-10-22T20:11:12.726Z,2.80
2022-10-22T20:16:12.124Z,2.80
2022-10-22T20:18:39.382Z,2.33
2022-10-22T20:21:08.300Z,2.60
2022-10-22T20:23:35.956Z,2.03
2022-10-22T20:26:04.824Z,1.80
2022-10-22T20:28:32.226Z,1.77
2022-10-22T20:30:59.344Z,1.73
2022-10-22T20:33:26.419Z,1.50
2022-10-22T20:36:05.813Z,1.50
2022-10-22T20:38:33.262Z,1.60
2022-10-22T20:41:06.485Z,1.95
2022-10-22T20:43:34.623Z,1.55
2022-10-22T20:46:02.335Z,1.40
2022-10-22T20:48:31.644Z,1.35
2022-10-22T20:50:59.851Z,1.52
2022-10-22T20:53:27.966Z,1.50
2022-10-22T20:55:58.231Z,1.50
2022-10-22T20:58:27.089Z,1.90
2022-10-22T21:00:55.551Z,1.52
2022-10-22T21:03:23.176Z,2.10
2022-10-22T21:05:50.593Z,2.35
2022-10-22T21:08:17.963Z,1.80
2022-10-22T21:10:49.484Z,1.77
2022-10-22T21:13:17.542Z,1.80
2022-10-22T21:15:44.628Z,1.50
2022-10-22T21:18:11.879Z,1.55
2022-10-22T21:20:42.242Z,1.38
2022-10-22T21:23:09.363Z,1.90
2022-10-22T21:25:40.665Z,1.63
2022-10-22T21:28:10.396Z,1.60
2022-10-22T21:30:37.446Z,1.50
2022-10-22T21:33:04.470Z,1.77
2022-10-22T21:35:32.825Z,1.65
2022-10-22T21:37:59.828Z,1.73
2022-10-22T21:40:27.888Z,1.33
2022-10-22T21:42:54.952Z,1.63
2022-10-22T21:45:22.530Z,1.65
2022-10-22T21:47:50.097Z,1.55
2022-10-22T21:50:17.259Z,1.50
2022-10-22T21:52:44.335Z,1.40
2022-10-22T21:55:11.463Z,1.40
2022-10-22T21:57:38.622Z,1.33
2022-10-22T22:00:07.558Z,1.60
2022-10-22T22:02:34.835Z,1.20
2022-10-22T22:05:01.859Z,1.45
2022-10-22T22:07:28.967Z,1.30
2022-10-22T22:09:56.245Z,1.40
2022-10-22T22:12:23.309Z,1.30
2022-10-22T22:14:50.374Z,1.25
2022-10-22T22:17:18.905Z,1.10
2022-10-22T22:19:46.022Z,1.40
2022-10-22T22:22:13.151Z,1.10
2022-10-22T22:24:40.190Z,1.17
2022-10-22T22:27:07.720Z,0.88
2022-10-22T22:29:35.477Z,1.30
2022-10-22T22:32:02.694Z,1.40
2022-10-22T22:34:29.837Z,1.13
2022-10-22T22:36:56.895Z,1.27
2022-10-22T22:39:24.657Z,1.38
2022-10-22T22:41:52.115Z,1.20
2022-10-22T22:44:19.158Z,1.00
2022-10-22T22:46:46.337Z,0.93
2022-10-22T22:49:14.299Z,1.20
2022-10-22T22:51:41.820Z,1.08
2022-10-22T22:54:09.744Z,0.82
2022-10-22T22:56:37.497Z,1.20
2022-10-22T22:59:05.842Z,1.02
2022-10-22T23:01:38.312Z,1.13
2022-10-22T23:04:13.718Z,1.00
2022-10-22T23:06:40.915Z,1.25
2022-10-22T23:09:11.426Z,1.10
2022-10-22T23:11:40.459Z,0.90
2022-10-22T23:14:08.626Z,1.10
2022-10-22T23:16:39.879Z,1.10
2022-10-22T23:19:07.282Z,1.10
2022-10-22T23:21:37.656Z,1.10
2022-10-22T23:24:07.818Z,1.20
2022-10-22T23:26:38.197Z,1.13
2022-10-22T23:29:18.128Z,0.98
2022-10-22T23:31:46.219Z,1.10
2022-10-22T23:34:16.491Z,1.00
2022-10-22T23:36:44.346Z,1.23
2022-10-22T23:39:14.148Z,1.60
2022-10-22T23:41:41.230Z,1.30
2022-10-22T23:44:09.170Z,1.23
2022-10-22T23:46:36.630Z,0.95
2022-10-22T23:49:03.844Z,1.40
2022-10-22T23:51:30.879Z,1.40
2022-10-22T23:54:00.579Z,1.23
2022-10-22T23:56:28.626Z,1.50
2022-10-22T23:58:56.189Z,1.10
